Terminal Aerodrome Forecast
Issued by NWS Charleston, SC

Home | Current Version | Previous Version | Text Only | Print | Product List | Glossary On
Versions: 1 2 3 4 5 6 7 8 9 10 11 12 13
941
FTUS42 KCHS 231621 AAA
TAFSAV
TAF AMD
KSAV 231621Z 2316/2412 09013G23KT P6SM OVC080
     FM240100 06007KT P6SM SCT080=

USA.gov is the U.S. government's official web portal to all federal, state and local government web resources and services.